sensor_id;sensor_type;location;lat;lon;timestamp;P1;durP1;ratioP1;P2;durP2;ratioP2
2201;SDS011;1107;48.654;9.250;2022-11-15T00:02:15;3.60;;;3.33;;
2201;SDS011;1107;48.654;9.250;2022-11-15T00:04:42;3.20;;;3.00;;
2201;SDS011;1107;48.654;9.250;2022-11-15T00:07:10;3.40;;;3.20;;
2201;SDS011;1107;48.654;9.250;2022-11-15T00:09:37;2.43;;;2.23;;
2201;SDS011;1107;48.654;9.250;2022-11-15T00:12:04;3.63;;;3.08;;
2201;SDS011;1107;48.654;9.250;2022-11-15T00:14:31;2.87;;;2.67;;
2201;SDS011;1107;48.654;9.250;2022-11-15T00:16:58;4.10;;;2.70;;
2201;SDS011;1107;48.654;9.250;2022-11-15T00:19:25;3.40;;;3.20;;
2201;SDS011;1107;48.654;9.250;2022-11-15T00:21:52;2.67;;;2.47;;
2201;SDS011;1107;48.654;9.250;2022-11-15T00:24:20;4.00;;;3.70;;
2201;SDS011;1107;48.654;9.250;2022-11-15T00:26:47;4.63;;;4.33;;
2201;SDS011;1107;48.654;9.250;2022-11-15T00:29:14;2.47;;;2.27;;
2201;SDS011;1107;48.654;9.250;2022-11-15T00:31:41;4.93;;;2.73;;
2201;SDS011;1107;48.654;9.250;2022-11-15T00:34:08;5.60;;;3.33;;
2201;SDS011;1107;48.654;9.250;2022-11-15T00:36:36;3.60;;;3.40;;
2201;SDS011;1107;48.654;9.250;2022-11-15T00:39:03;3.60;;;3.40;;
2201;SDS011;1107;48.654;9.250;2022-11-15T00:41:32;5.70;;;5.30;;
2201;SDS011;1107;48.654;9.250;2022-11-15T00:43:59;5.87;;;3.40;;
2201;SDS011;1107;48.654;9.250;2022-11-15T00:46:26;2.80;;;2.60;;
2201;SDS011;1107;48.654;9.250;2022-11-15T00:48:53;2.20;;;2.00;;
2201;SDS011;1107;48.654;9.250;2022-11-15T00:51:20;3.60;;;3.13;;
2201;SDS011;1107;48.654;9.250;2022-11-15T00:53:46;2.87;;;2.67;;
2201;SDS011;1107;48.654;9.250;2022-11-15T00:56:13;4.37;;;2.87;;
2201;SDS011;1107;48.654;9.250;2022-11-15T00:58:42;3.10;;;2.80;;
2201;SDS011;1107;48.654;9.250;2022-11-15T01:01:09;5.80;;;5.30;;
2201;SDS011;1107;48.654;9.250;2022-11-15T01:03:38;5.73;;;4.87;;
2201;SDS011;1107;48.654;9.250;2022-11-15T01:06:06;6.05;;;5.55;;
2201;SDS011;1107;48.654;9.250;2022-11-15T01:08:34;5.37;;;5.07;;
2201;SDS011;1107;48.654;9.250;2022-11-15T01:11:02;7.23;;;3.83;;
2201;SDS011;1107;48.654;9.250;2022-11-15T01:13:30;3.10;;;2.90;;
2201;SDS011;1107;48.654;9.250;2022-11-15T01:16:04;4.90;;;4.50;;
2201;SDS011;1107;48.654;9.250;2022-11-15T01:18:32;2.93;;;2.73;;
2201;SDS011;1107;48.654;9.250;2022-11-15T01:20:59;5.60;;;3.50;;
2201;SDS011;1107;48.654;9.250;2022-11-15T01:23:30;2.97;;;2.72;;
2201;SDS011;1107;48.654;9.250;2022-11-15T01:25:58;4.70;;;2.90;;
2201;SDS011;1107;48.654;9.250;2022-11-15T01:28:29;2.80;;;2.60;;
2201;SDS011;1107;48.654;9.250;2022-11-15T01:30:57;3.00;;;2.80;;
2201;SDS011;1107;48.654;9.250;2022-11-15T01:33:26;2.60;;;2.40;;
2201;SDS011;1107;48.654;9.250;2022-11-15T01:35:53;2.60;;;2.40;;
2201;SDS011;1107;48.654;9.250;2022-11-15T01:38:20;2.87;;;2.50;;
2201;SDS011;1107;48.654;9.250;2022-11-15T01:40:48;2.70;;;2.50;;
2201;SDS011;1107;48.654;9.250;2022-11-15T01:43:19;4.80;;;2.40;;
2201;SDS011;1107;48.654;9.250;2022-11-15T01:45:47;2.27;;;2.07;;
2201;SDS011;1107;48.654;9.250;2022-11-15T01:48:19;3.23;;;2.93;;
2201;SDS011;1107;48.654;9.250;2022-11-15T01:50:48;3.03;;;2.43;;
2201;SDS011;1107;48.654;9.250;2022-11-15T01:53:16;2.50;;;2.30;;
2201;SDS011;1107;48.654;9.250;2022-11-15T01:55:45;10.32;;;3.25;;
2201;SDS011;1107;48.654;9.250;2022-11-15T01:58:12;2.90;;;2.70;;
2201;SDS011;1107;48.654;9.250;2022-11-15T02:00:39;2.97;;;2.77;;
2201;SDS011;1107;48.654;9.250;2022-11-15T02:03:06;4.10;;;3.80;;
2201;SDS011;1107;48.654;9.250;2022-11-15T02:05:35;4.40;;;4.00;;
2201;SDS011;1107;48.654;9.250;2022-11-15T02:08:03;4.50;;;3.13;;
2201;SDS011;1107;48.654;9.250;2022-11-15T02:10:31;3.10;;;2.60;;
2201;SDS011;1107;48.654;9.250;2022-11-15T02:12:58;3.78;;;3.33;;
2201;SDS011;1107;48.654;9.250;2022-11-15T02:15:31;3.78;;;3.30;;
2201;SDS011;1107;48.654;9.250;2022-11-15T02:18:08;2.70;;;2.50;;
2201;SDS011;1107;48.654;9.250;2022-11-15T02:20:46;3.90;;;3.70;;
2201;SDS011;1107;48.654;9.250;2022-11-15T02:23:50;4.00;;;3.60;;
2201;SDS011;1107;48.654;9.250;2022-11-15T02:26:46;4.32;;;3.38;;
2201;SDS011;1107;48.654;9.250;2022-11-15T02:29:44;2.97;;;2.78;;
2201;SDS011;1107;48.654;9.250;2022-11-15T02:32:29;3.20;;;3.00;;
2201;SDS011;1107;48.654;9.250;2022-11-15T02:35:06;3.50;;;3.30;;
2201;SDS011;1107;48.654;9.250;2022-11-15T02:37:42;3.47;;;3.28;;
2201;SDS011;1107;48.654;9.250;2022-11-15T02:40:16;3.63;;;3.35;;
2201;SDS011;1107;48.654;9.250;2022-11-15T02:42:50;3.58;;;3.38;;
2201;SDS011;1107;48.654;9.250;2022-11-15T02:45:40;2.83;;;2.63;;
2201;SDS011;1107;48.654;9.250;2022-11-15T02:48:12;3.28;;;3.08;;
2201;SDS011;1107;48.654;9.250;2022-11-15T02:50:41;3.55;;;2.83;;
2201;SDS011;1107;48.654;9.250;2022-11-15T02:53:10;3.10;;;2.90;;
2201;SDS011;1107;48.654;9.250;2022-11-15T02:55:37;3.33;;;3.13;;
2201;SDS011;1107;48.654;9.250;2022-11-15T02:58:21;3.05;;;2.85;;
2201;SDS011;1107;48.654;9.250;2022-11-15T03:01:00;5.70;;;2.85;;
2201;SDS011;1107;48.654;9.250;2022-11-15T03:03:41;2.63;;;2.42;;
2201;SDS011;1107;48.654;9.250;2022-11-15T03:06:20;3.00;;;2.70;;
2201;SDS011;1107;48.654;9.250;2022-11-15T03:08:57;3.85;;;2.90;;
2201;SDS011;1107;48.654;9.250;2022-11-15T03:11:29;4.18;;;2.85;;
2201;SDS011;1107;48.654;9.250;2022-11-15T03:14:02;3.78;;;3.13;;
2201;SDS011;1107;48.654;9.250;2022-11-15T03:16:40;3.10;;;2.88;;
2201;SDS011;1107;48.654;9.250;2022-11-15T03:19:16;3.43;;;3.13;;
2201;SDS011;1107;48.654;9.250;2022-11-15T03:21:48;2.90;;;2.70;;
2201;SDS011;1107;48.654;9.250;2022-11-15T03:24:16;2.75;;;2.55;;
2201;SDS011;1107;48.654;9.250;2022-11-15T03:26:45;2.30;;;2.10;;
2201;SDS011;1107;48.654;9.250;2022-11-15T03:29:15;3.00;;;2.80;;
2201;SDS011;1107;48.654;9.250;2022-11-15T03:31:46;3.05;;;2.75;;
2201;SDS011;1107;48.654;9.250;2022-11-15T03:34:23;3.10;;;2.90;;
2201;SDS011;1107;48.654;9.250;2022-11-15T03:36:53;2.55;;;2.35;;
2201;SDS011;1107;48.654;9.250;2022-11-15T03:39:21;4.00;;;3.10;;
2201;SDS011;1107;48.654;9.250;2022-11-15T03:41:50;3.08;;;2.85;;
2201;SDS011;1107;48.654;9.250;2022-11-15T03:44:32;4.15;;;3.10;;
2201;SDS011;1107;48.654;9.250;2022-11-15T03:47:07;5.37;;;3.47;;
2201;SDS011;1107;48.654;9.250;2022-11-15T03:49:40;3.78;;;2.70;;
2201;SDS011;1107;48.654;9.250;2022-11-15T03:52:11;3.08;;;2.75;;
2201;SDS011;1107;48.654;9.250;2022-11-15T03:54:47;3.03;;;2.83;;
2201;SDS011;1107;48.654;9.250;2022-11-15T03:57:15;3.20;;;3.00;;
2201;SDS011;1107;48.654;9.250;2022-11-15T03:59:42;3.00;;;2.80;;
2201;SDS011;1107;48.654;9.250;2022-11-15T04:02:09;2.53;;;2.33;;
2201;SDS011;1107;48.654;9.250;2022-11-15T04:04:36;2.60;;;2.40;;
2201;SDS011;1107;48.654;9.250;2022-11-15T04:07:05;2.72;;;2.53;;
2201;SDS011;1107;48.654;9.250;2022-11-15T04:09:32;2.90;;;2.70;;
2201;SDS011;1107;48.654;9.250;2022-11-15T04:12:19;3.47;;;3.28;;
2201;SDS011;1107;48.654;9.250;2022-11-15T04:14:55;3.38;;;3.17;;
2201;SDS011;1107;48.654;9.250;2022-11-15T04:17:33;4.45;;;2.90;;
2201;SDS011;1107;48.654;9.250;2022-11-15T04:20:01;5.70;;;3.37;;
2201;SDS011;1107;48.654;9.250;2022-11-15T04:22:48;3.20;;;3.00;;
2201;SDS011;1107;48.654;9.250;2022-11-15T04:25:32;3.17;;;2.97;;
2201;SDS011;1107;48.654;9.250;2022-11-15T04:27:59;3.90;;;3.60;;
2201;SDS011;1107;48.654;9.250;2022-11-15T04:30:26;3.08;;;2.88;;
2201;SDS011;1107;48.654;9.250;2022-11-15T04:32:53;3.97;;;3.38;;
2201;SDS011;1107;48.654;9.250;2022-11-15T04:35:20;3.05;;;2.85;;
2201;SDS011;1107;48.654;9.250;2022-11-15T04:37:48;4.03;;;2.78;;
2201;SDS011;1107;48.654;9.250;2022-11-15T04:40:15;2.63;;;2.42;;
2201;SDS011;1107;48.654;9.250;2022-11-15T04:42:42;3.53;;;3.33;;
2201;SDS011;1107;48.654;9.250;2022-11-15T04:45:09;3.97;;;3.78;;
2201;SDS011;1107;48.654;9.250;2022-11-15T04:47:37;9.63;;;7.80;;
2201;SDS011;1107;48.654;9.250;2022-11-15T04:50:04;2.65;;;2.45;;
2201;SDS011;1107;48.654;9.250;2022-11-15T04:52:32;2.30;;;2.10;;
2201;SDS011;1107;48.654;9.250;2022-11-15T04:55:00;2.75;;;2.55;;
2201;SDS011;1107;48.654;9.250;2022-11-15T04:57:27;3.85;;;3.13;;
2201;SDS011;1107;48.654;9.250;2022-11-15T04:59:54;4.25;;;3.50;;
2201;SDS011;1107;48.654;9.250;2022-11-15T05:02:21;4.45;;;2.75;;
2201;SDS011;1107;48.654;9.250;2022-11-15T05:04:48;2.20;;;2.00;;
2201;SDS011;1107;48.654;9.250;2022-11-15T05:07:13;6.10;;;5.23;;
2201;SDS011;1107;48.654;9.250;2022-11-15T05:09:40;6.00;;;5.28;;
2201;SDS011;1107;48.654;9.250;2022-11-15T05:12:09;6.95;;;6.00;;
2201;SDS011;1107;48.654;9.250;2022-11-15T05:14:36;5.80;;;5.18;;
2201;SDS011;1107;48.654;9.250;2022-11-15T05:17:03;6.90;;;4.93;;
2201;SDS011;1107;48.654;9.250;2022-11-15T05:19:29;4.50;;;3.30;;
2201;SDS011;1107;48.654;9.250;2022-11-15T05:21:56;2.97;;;2.78;;
2201;SDS011;1107;48.654;9.250;2022-11-15T05:24:23;2.70;;;2.50;;
2201;SDS011;1107;48.654;9.250;2022-11-15T05:26:50;3.33;;;3.13;;
2201;SDS011;1107;48.654;9.250;2022-11-15T05:29:19;3.35;;;3.15;;
2201;SDS011;1107;48.654;9.250;2022-11-15T05:31:46;3.50;;;3.30;;
2201;SDS011;1107;48.654;9.250;2022-11-15T05:34:13;5.57;;;3.72;;
2201;SDS011;1107;48.654;9.250;2022-11-15T05:36:41;4.10;;;3.80;;
2201;SDS011;1107;48.654;9.250;2022-11-15T05:39:09;4.55;;;4.25;;
2201;SDS011;1107;48.654;9.250;2022-11-15T05:41:37;4.80;;;4.40;;
2201;SDS011;1107;48.654;9.250;2022-11-15T05:44:07;16.65;;;3.85;;
2201;SDS011;1107;48.654;9.250;2022-11-15T05:46:38;4.45;;;4.15;;
2201;SDS011;1107;48.654;9.250;2022-11-15T05:49:07;4.43;;;4.13;;
2201;SDS011;1107;48.654;9.250;2022-11-15T05:51:38;4.68;;;4.38;;
2201;SDS011;1107;48.654;9.250;2022-11-15T05:54:06;5.43;;;3.95;;
2201;SDS011;1107;48.654;9.250;2022-11-15T05:56:34;5.70;;;4.00;;
2201;SDS011;1107;48.654;9.250;2022-11-15T05:59:01;6.43;;;4.78;;
2201;SDS011;1107;48.654;9.250;2022-11-15T06:01:28;4.43;;;4.07;;
2201;SDS011;1107;48.654;9.250;2022-11-15T06:03:57;4.63;;;4.32;;
2201;SDS011;1107;48.654;9.250;2022-11-15T06:06:24;4.28;;;3.97;;
2201;SDS011;1107;48.654;9.250;2022-11-15T06:08:51;4.32;;;3.92;;
2201;SDS011;1107;48.654;9.250;2022-11-15T06:11:18;4.85;;;3.95;;
2201;SDS011;1107;48.654;9.250;2022-11-15T06:13:45;3.95;;;3.75;;
2201;SDS011;1107;48.654;9.250;2022-11-15T06:16:11;3.65;;;3.30;;
2201;SDS011;1107;48.654;9.250;2022-11-15T06:18:38;3.85;;;3.55;;
2201;SDS011;1107;48.654;9.250;2022-11-15T06:21:07;6.68;;;3.65;;
2201;SDS011;1107;48.654;9.250;2022-11-15T06:23:34;4.20;;;3.90;;
2201;SDS011;1107;48.654;9.250;2022-11-15T06:26:02;4.75;;;3.70;;
2201;SDS011;1107;48.654;9.250;2022-11-15T06:28:29;4.22;;;4.03;;
2201;SDS011;1107;48.654;9.250;2022-11-15T06:31:01;4.60;;;4.30;;
2201;SDS011;1107;48.654;9.250;2022-11-15T06:33:29;5.57;;;4.20;;
2201;SDS011;1107;48.654;9.250;2022-11-15T06:35:59;4.03;;;3.72;;
2201;SDS011;1107;48.654;9.250;2022-11-15T06:38:28;5.05;;;3.20;;
2201;SDS011;1107;48.654;9.250;2022-11-15T06:40:55;3.70;;;3.47;;
2201;SDS011;1107;48.654;9.250;2022-11-15T06:43:28;5.15;;;3.85;;
2201;SDS011;1107;48.654;9.250;2022-11-15T06:45:57;11.88;;;6.25;;
2201;SDS011;1107;48.654;9.250;2022-11-15T06:48:24;5.65;;;5.25;;
2201;SDS011;1107;48.654;9.250;2022-11-15T06:50:51;4.60;;;4.30;;
2201;SDS011;1107;48.654;9.250;2022-11-15T06:53:19;4.50;;;4.20;;
2201;SDS011;1107;48.654;9.250;2022-11-15T06:55:48;5.50;;;5.10;;
2201;SDS011;1107;48.654;9.250;2022-11-15T06:58:15;5.07;;;4.78;;
2201;SDS011;1107;48.654;9.250;2022-11-15T07:00:42;5.95;;;4.63;;
2201;SDS011;1107;48.654;9.250;2022-11-15T07:03:09;8.10;;;5.80;;
2201;SDS011;1107;48.654;9.250;2022-11-15T07:05:36;7.20;;;6.70;;
2201;SDS011;1107;48.654;9.250;2022-11-15T07:08:03;11.57;;;8.70;;
2201;SDS011;1107;48.654;9.250;2022-11-15T07:10:30;9.40;;;6.90;;
2201;SDS011;1107;48.654;9.250;2022-11-15T07:12:59;8.73;;;7.83;;
2201;SDS011;1107;48.654;9.250;2022-11-15T07:15:26;13.33;;;5.20;;
2201;SDS011;1107;48.654;9.250;2022-11-15T07:17:53;4.77;;;4.37;;
2201;SDS011;1107;48.654;9.250;2022-11-15T07:20:19;4.57;;;4.27;;
2201;SDS011;1107;48.654;9.250;2022-11-15T07:22:46;4.27;;;3.97;;
2201;SDS011;1107;48.654;9.250;2022-11-15T07:25:13;3.73;;;3.43;;
2201;SDS011;1107;48.654;9.250;2022-11-15T07:27:41;3.80;;;3.60;;
2201;SDS011;1107;48.654;9.250;2022-11-15T07:30:10;3.27;;;3.07;;
2201;SDS011;1107;48.654;9.250;2022-11-15T07:32:37;8.60;;;3.17;;
2201;SDS011;1107;48.654;9.250;2022-11-15T07:35:04;3.73;;;3.53;;
2201;SDS011;1107;48.654;9.250;2022-11-15T07:37:32;3.73;;;3.43;;
2201;SDS011;1107;48.654;9.250;2022-11-15T07:39:59;4.13;;;3.83;;
2201;SDS011;1107;48.654;9.250;2022-11-15T07:42:26;3.87;;;3.57;;
2201;SDS011;1107;48.654;9.250;2022-11-15T07:45:11;5.00;;;4.70;;
2201;SDS011;1107;48.654;9.250;2022-11-15T07:47:38;6.07;;;5.57;;
2201;SDS011;1107;48.654;9.250;2022-11-15T07:50:06;5.40;;;5.00;;
2201;SDS011;1107;48.654;9.250;2022-11-15T07:52:33;4.17;;;3.87;;
2201;SDS011;1107;48.654;9.250;2022-11-15T07:55:00;5.40;;;4.37;;
2201;SDS011;1107;48.654;9.250;2022-11-15T07:57:27;6.80;;;5.07;;
2201;SDS011;1107;48.654;9.250;2022-11-15T07:59:56;4.60;;;4.30;;
2201;SDS011;1107;48.654;9.250;2022-11-15T08:02:24;3.97;;;3.73;;
2201;SDS011;1107;48.654;9.250;2022-11-15T08:04:51;3.67;;;2.83;;
2201;SDS011;1107;48.654;9.250;2022-11-15T08:07:18;3.50;;;3.30;;
2201;SDS011;1107;48.654;9.250;2022-11-15T08:09:45;3.80;;;3.50;;
2201;SDS011;1107;48.654;9.250;2022-11-15T08:12:12;5.83;;;5.50;;
2201;SDS011;1107;48.654;9.250;2022-11-15T08:14:39;4.10;;;3.73;;
2201;SDS011;1107;48.654;9.250;2022-11-15T08:17:06;2.80;;;2.60;;
2201;SDS011;1107;48.654;9.250;2022-11-15T08:19:34;2.93;;;2.73;;
2201;SDS011;1107;48.654;9.250;2022-11-15T08:22:01;5.77;;;3.03;;
2201;SDS011;1107;48.654;9.250;2022-11-15T08:24:28;3.50;;;3.30;;
2201;SDS011;1107;48.654;9.250;2022-11-15T08:26:55;4.40;;;4.10;;
2201;SDS011;1107;48.654;9.250;2022-11-15T08:29:22;4.40;;;4.20;;
2201;SDS011;1107;48.654;9.250;2022-11-15T08:31:49;5.60;;;5.20;;
2201;SDS011;1107;48.654;9.250;2022-11-15T08:34:16;7.70;;;7.10;;
2201;SDS011;1107;48.654;9.250;2022-11-15T08:36:44;6.50;;;6.00;;
2201;SDS011;1107;48.654;9.250;2022-11-15T08:39:11;7.60;;;7.10;;
2201;SDS011;1107;48.654;9.250;2022-11-15T08:41:38;5.13;;;4.83;;
2201;SDS011;1107;48.654;9.250;2022-11-15T08:44:05;5.10;;;4.80;;
2201;SDS011;1107;48.654;9.250;2022-11-15T08:46:32;5.87;;;5.40;;
2201;SDS011;1107;48.654;9.250;2022-11-15T08:48:59;6.43;;;6.03;;
2201;SDS011;1107;48.654;9.250;2022-11-15T08:51:26;5.33;;;4.93;;
2201;SDS011;1107;48.654;9.250;2022-11-15T08:53:55;3.50;;;3.30;;
2201;SDS011;1107;48.654;9.250;2022-11-15T08:56:21;3.47;;;3.27;;
2201;SDS011;1107;48.654;9.250;2022-11-15T08:58:48;3.70;;;3.50;;
2201;SDS011;1107;48.654;9.250;2022-11-15T09:01:16;4.37;;;4.07;;
2201;SDS011;1107;48.654;9.250;2022-11-15T09:03:43;3.97;;;3.70;;
2201;SDS011;1107;48.654;9.250;2022-11-15T09:06:11;3.30;;;3.10;;
2201;SDS011;1107;48.654;9.250;2022-11-15T09:08:38;3.73;;;3.33;;
2201;SDS011;1107;48.654;9.250;2022-11-15T09:11:07;3.20;;;3.00;;
2201;SDS011;1107;48.654;9.250;2022-11-15T09:13:35;4.70;;;3.53;;
2201;SDS011;1107;48.654;9.250;2022-11-15T09:16:03;4.40;;;4.10;;
2201;SDS011;1107;48.654;9.250;2022-11-15T09:18:31;4.30;;;4.00;;
2201;SDS011;1107;48.654;9.250;2022-11-15T09:20:59;4.40;;;4.00;;
2201;SDS011;1107;48.654;9.250;2022-11-15T09:23:27;4.70;;;4.30;;
2201;SDS011;1107;48.654;9.250;2022-11-15T09:25:58;4.87;;;3.73;;
2201;SDS011;1107;48.654;9.250;2022-11-15T09:28:27;3.50;;;3.30;;
2201;SDS011;1107;48.654;9.250;2022-11-15T09:30:55;3.70;;;3.47;;
2201;SDS011;1107;48.654;9.250;2022-11-15T09:33:24;4.00;;;3.43;;
2201;SDS011;1107;48.654;9.250;2022-11-15T09:35:52;4.13;;;3.93;;
2201;SDS011;1107;48.654;9.250;2022-11-15T09:38:19;3.30;;;3.10;;
2201;SDS011;1107;48.654;9.250;2022-11-15T09:40:47;3.80;;;3.60;;
2201;SDS011;1107;48.654;9.250;2022-11-15T09:43:31;3.63;;;3.40;;
2201;SDS011;1107;48.654;9.250;2022-11-15T09:46:08;7.00;;;4.03;;
2201;SDS011;1107;48.654;9.250;2022-11-15T09:48:51;3.83;;;3.53;;
2201;SDS011;1107;48.654;9.250;2022-11-15T09:51:22;6.57;;;3.60;;
2201;SDS011;1107;48.654;9.250;2022-11-15T09:53:56;4.33;;;4.13;;
2201;SDS011;1107;48.654;9.250;2022-11-15T09:56:28;16.97;;;3.80;;
2201;SDS011;1107;48.654;9.250;2022-11-15T09:58:59;4.67;;;4.37;;
2201;SDS011;1107;48.654;9.250;2022-11-15T10:01:37;4.67;;;4.37;;
2201;SDS011;1107;48.654;9.250;2022-11-15T10:04:10;4.07;;;3.20;;
2201;SDS011;1107;48.654;9.250;2022-11-15T10:06:38;3.50;;;3.30;;
2201;SDS011;1107;48.654;9.250;2022-11-15T10:09:12;5.77;;;4.23;;
2201;SDS011;1107;48.654;9.250;2022-11-15T10:11:41;4.90;;;4.60;;
2201;SDS011;1107;48.654;9.250;2022-11-15T10:14:11;10.77;;;6.53;;
2201;SDS011;1107;48.654;9.250;2022-11-15T10:16:58;10.20;;;8.97;;
2201;SDS011;1107;48.654;9.250;2022-11-15T10:19:56;10.50;;;9.53;;
2201;SDS011;1107;48.654;9.250;2022-11-15T10:22:34;15.77;;;13.50;;
2201;SDS011;1107;48.654;9.250;2022-11-15T10:25:20;8.90;;;8.20;;
2201;SDS011;1107;48.654;9.250;2022-11-15T10:27:53;11.13;;;9.90;;
2201;SDS011;1107;48.654;9.250;2022-11-15T10:30:31;10.43;;;9.10;;
2201;SDS011;1107;48.654;9.250;2022-11-15T10:33:00;6.20;;;5.00;;
2201;SDS011;1107;48.654;9.250;2022-11-15T10:35:57;10.93;;;5.40;;
2201;SDS011;1107;48.654;9.250;2022-11-15T10:38:56;10.23;;;4.90;;
2201;SDS011;1107;48.654;9.250;2022-11-15T10:41:31;4.50;;;4.10;;
2201;SDS011;1107;48.654;9.250;2022-11-15T10:44:03;4.80;;;4.50;;
2201;SDS011;1107;48.654;9.250;2022-11-15T10:47:03;5.80;;;5.40;;
2201;SDS011;1107;48.654;9.250;2022-11-15T10:49:32;5.90;;;5.50;;
2201;SDS011;1107;48.654;9.250;2022-11-15T10:52:00;6.20;;;5.60;;
2201;SDS011;1107;48.654;9.250;2022-11-15T10:54:33;6.47;;;5.30;;
2201;SDS011;1107;48.654;9.250;2022-11-15T10:57:04;7.50;;;5.93;;
2201;SDS011;1107;48.654;9.250;2022-11-15T10:59:35;6.53;;;5.87;;
2201;SDS011;1107;48.654;9.250;2022-11-15T11:02:20;6.00;;;5.60;;
2201;SDS011;1107;48.654;9.250;2022-11-15T11:04:56;6.20;;;5.30;;
2201;SDS011;1107;48.654;9.250;2022-11-15T11:07:24;6.50;;;6.00;;
2201;SDS011;1107;48.654;9.250;2022-11-15T11:09:59;6.33;;;5.70;;
2201;SDS011;1107;48.654;9.250;2022-11-15T11:12:28;6.60;;;5.10;;
2201;SDS011;1107;48.654;9.250;2022-11-15T11:14:57;5.03;;;4.63;;
2201;SDS011;1107;48.654;9.250;2022-11-15T11:17:30;5.67;;;5.27;;
2201;SDS011;1107;48.654;9.250;2022-11-15T11:20:09;5.43;;;5.13;;
2201;SDS011;1107;48.654;9.250;2022-11-15T11:22:50;5.57;;;5.07;;
2201;SDS011;1107;48.654;9.250;2022-11-15T11:25:33;5.07;;;4.63;;
2201;SDS011;1107;48.654;9.250;2022-11-15T11:28:18;5.17;;;4.87;;
2201;SDS011;1107;48.654;9.250;2022-11-15T11:30:58;16.10;;;6.00;;
2201;SDS011;1107;48.654;9.250;2022-11-15T11:33:34;4.30;;;4.00;;
2201;SDS011;1107;48.654;9.250;2022-11-15T11:36:09;10.83;;;5.67;;
2201;SDS011;1107;48.654;9.250;2022-11-15T11:38:49;6.67;;;4.87;;
2201;SDS011;1107;48.654;9.250;2022-11-15T11:41:24;7.90;;;5.53;;
2201;SDS011;1107;48.654;9.250;2022-11-15T11:44:06;6.30;;;5.77;;
2201;SDS011;1107;48.654;9.250;2022-11-15T11:46:47;9.60;;;5.73;;
2201;SDS011;1107;48.654;9.250;2022-11-15T11:49:20;5.53;;;5.00;;
2201;SDS011;1107;48.654;9.250;2022-11-15T11:51:54;5.27;;;4.97;;
2201;SDS011;1107;48.654;9.250;2022-11-15T11:54:29;5.40;;;5.00;;
2201;SDS011;1107;48.654;9.250;2022-11-15T11:57:02;6.00;;;5.43;;
2201;SDS011;1107;48.654;9.250;2022-11-15T11:59:35;6.30;;;5.77;;
2201;SDS011;1107;48.654;9.250;2022-11-15T12:02:11;6.10;;;5.70;;
2201;SDS011;1107;48.654;9.250;2022-11-15T12:04:45;6.73;;;5.53;;
2201;SDS011;1107;48.654;9.250;2022-11-15T12:07:17;7.70;;;5.53;;
2201;SDS011;1107;48.654;9.250;2022-11-15T12:09:51;6.00;;;5.70;;
2201;SDS011;1107;48.654;9.250;2022-11-15T12:12:25;7.30;;;5.50;;
2201;SDS011;1107;48.654;9.250;2022-11-15T12:19:37;9.43;;;6.30;;
2201;SDS011;1107;48.654;9.250;2022-11-15T12:22:04;6.50;;;6.10;;
2201;SDS011;1107;48.654;9.250;2022-11-15T12:24:37;10.73;;;5.77;;
2201;SDS011;1107;48.654;9.250;2022-11-15T12:27:08;6.37;;;5.97;;
2201;SDS011;1107;48.654;9.250;2022-11-15T12:29:44;6.40;;;5.97;;
2201;SDS011;1107;48.654;9.250;2022-11-15T12:32:17;5.93;;;5.43;;
2201;SDS011;1107;48.654;9.250;2022-11-15T12:34:51;7.07;;;6.47;;
2201;SDS011;1107;48.654;9.250;2022-11-15T12:40:27;7.13;;;6.60;;
2201;SDS011;1107;48.654;9.250;2022-11-15T12:46:01;6.10;;;5.50;;
2201;SDS011;1107;48.654;9.250;2022-11-15T13:03:25;6.57;;;6.07;;
2201;SDS011;1107;48.654;9.250;2022-11-15T13:09:49;7.10;;;6.70;;
2201;SDS011;1107;48.654;9.250;2022-11-15T13:15:32;10.20;;;5.70;;
2201;SDS011;1107;48.654;9.250;2022-11-15T13:20:54;6.00;;;5.60;;
2201;SDS011;1107;48.654;9.250;2022-11-15T13:23:21;6.70;;;6.10;;
2201;SDS011;1107;48.654;9.250;2022-11-15T13:25:53;7.27;;;6.00;;
2201;SDS011;1107;48.654;9.250;2022-11-15T13:28:31;6.27;;;5.77;;
2201;SDS011;1107;48.654;9.250;2022-11-15T13:31:00;6.60;;;6.20;;
2201;SDS011;1107;48.654;9.250;2022-11-15T13:33:30;6.23;;;5.33;;
2201;SDS011;1107;48.654;9.250;2022-11-15T13:36:01;6.13;;;5.60;;
2201;SDS011;1107;48.654;9.250;2022-11-15T13:38:32;6.63;;;6.20;;
2201;SDS011;1107;48.654;9.250;2022-11-15T13:41:10;6.77;;;5.53;;
2201;SDS011;1107;48.654;9.250;2022-11-15T13:43:44;6.40;;;5.90;;
2201;SDS011;1107;48.654;9.250;2022-11-15T13:46:12;5.70;;;5.40;;
2201;SDS011;1107;48.654;9.250;2022-11-15T13:48:42;6.87;;;6.20;;
2201;SDS011;1107;48.654;9.250;2022-11-15T13:51:12;5.97;;;5.57;;
2201;SDS011;1107;48.654;9.250;2022-11-15T13:53:46;5.67;;;5.27;;
2201;SDS011;1107;48.654;9.250;2022-11-15T13:56:16;5.83;;;5.43;;
2201;SDS011;1107;48.654;9.250;2022-11-15T13:58:46;5.87;;;5.47;;
2201;SDS011;1107;48.654;9.250;2022-11-15T14:01:14;5.50;;;5.20;;
2201;SDS011;1107;48.654;9.250;2022-11-15T14:03:48;4.83;;;4.53;;
2201;SDS011;1107;48.654;9.250;2022-11-15T14:06:19;5.03;;;4.73;;
2201;SDS011;1107;48.654;9.250;2022-11-15T14:09:01;5.97;;;5.57;;
2201;SDS011;1107;48.654;9.250;2022-11-15T14:11:50;26.80;;;12.00;;
2201;SDS011;1107;48.654;9.250;2022-11-15T14:14:21;7.37;;;5.90;;
2201;SDS011;1107;48.654;9.250;2022-11-15T14:16:49;6.00;;;5.33;;
2201;SDS011;1107;48.654;9.250;2022-11-15T14:19:34;5.47;;;5.00;;
2201;SDS011;1107;48.654;9.250;2022-11-15T14:22:18;5.00;;;4.67;;
2201;SDS011;1107;48.654;9.250;2022-11-15T14:25:03;4.50;;;4.20;;
2201;SDS011;1107;48.654;9.250;2022-11-15T14:27:33;4.40;;;4.10;;
2201;SDS011;1107;48.654;9.250;2022-11-15T14:30:02;6.23;;;4.60;;
2201;SDS011;1107;48.654;9.250;2022-11-15T14:32:30;4.87;;;4.57;;
2201;SDS011;1107;48.654;9.250;2022-11-15T14:35:09;4.80;;;4.50;;
2201;SDS011;1107;48.654;9.250;2022-11-15T14:37:41;6.77;;;6.23;;
2201;SDS011;1107;48.654;9.250;2022-11-15T14:40:12;18.10;;;11.17;;
2201;SDS011;1107;48.654;9.250;2022-11-15T14:42:40;11.23;;;9.17;;
2201;SDS011;1107;48.654;9.250;2022-11-15T14:45:10;6.43;;;5.77;;
2201;SDS011;1107;48.654;9.250;2022-11-15T14:47:40;6.70;;;5.40;;
2201;SDS011;1107;48.654;9.250;2022-11-15T14:50:10;5.97;;;5.37;;
2201;SDS011;1107;48.654;9.250;2022-11-15T14:52:38;5.70;;;5.30;;
2201;SDS011;1107;48.654;9.250;2022-11-15T14:55:10;13.20;;;5.60;;
2201;SDS011;1107;48.654;9.250;2022-11-15T14:57:41;6.40;;;5.00;;
2201;SDS011;1107;48.654;9.250;2022-11-15T15:00:09;7.03;;;4.97;;
2201;SDS011;1107;48.654;9.250;2022-11-15T15:02:38;8.73;;;6.10;;
2201;SDS011;1107;48.654;9.250;2022-11-15T15:05:11;8.60;;;5.43;;
2201;SDS011;1107;48.654;9.250;2022-11-15T15:07:41;8.20;;;7.40;;
2201;SDS011;1107;48.654;9.250;2022-11-15T15:10:08;8.77;;;7.13;;
2201;SDS011;1107;48.654;9.250;2022-11-15T15:12:36;9.43;;;8.57;;
2201;SDS011;1107;48.654;9.250;2022-11-15T15:15:04;10.30;;;9.20;;
2201;SDS011;1107;48.654;9.250;2022-11-15T15:17:33;32.30;;;15.87;;
2201;SDS011;1107;48.654;9.250;2022-11-15T15:20:00;22.20;;;13.20;;
2201;SDS011;1107;48.654;9.250;2022-11-15T15:22:27;11.70;;;8.17;;
2201;SDS011;1107;48.654;9.250;2022-11-15T15:24:55;8.40;;;7.80;;
2201;SDS011;1107;48.654;9.250;2022-11-15T15:27:22;10.40;;;8.17;;
2201;SDS011;1107;48.654;9.250;2022-11-15T15:29:49;7.57;;;6.87;;
2201;SDS011;1107;48.654;9.250;2022-11-15T15:32:16;9.80;;;6.70;;
2201;SDS011;1107;48.654;9.250;2022-11-15T15:34:44;8.17;;;7.17;;
2201;SDS011;1107;48.654;9.250;2022-11-15T15:37:19;8.23;;;6.77;;
2201;SDS011;1107;48.654;9.250;2022-11-15T15:39:49;18.10;;;8.00;;
2201;SDS011;1107;48.654;9.250;2022-11-15T15:42:17;8.73;;;7.90;;
2201;SDS011;1107;48.654;9.250;2022-11-15T15:44:44;9.43;;;8.53;;
2201;SDS011;1107;48.654;9.250;2022-11-15T15:47:11;8.30;;;7.57;;
2201;SDS011;1107;48.654;9.250;2022-11-15T15:49:39;16.20;;;7.70;;
2201;SDS011;1107;48.654;9.250;2022-11-15T15:52:08;10.73;;;6.70;;
2201;SDS011;1107;48.654;9.250;2022-11-15T15:54:35;12.40;;;9.13;;
2201;SDS011;1107;48.654;9.250;2022-11-15T15:57:02;11.03;;;9.93;;
2201;SDS011;1107;48.654;9.250;2022-11-15T15:59:30;11.93;;;7.53;;
2201;SDS011;1107;48.654;9.250;2022-11-15T16:01:57;19.13;;;7.17;;
2201;SDS011;1107;48.654;9.250;2022-11-15T16:04:24;9.37;;;6.97;;
2201;SDS011;1107;48.654;9.250;2022-11-15T16:06:51;10.80;;;7.83;;
2201;SDS011;1107;48.654;9.250;2022-11-15T16:09:21;8.00;;;6.67;;
2201;SDS011;1107;48.654;9.250;2022-11-15T16:12:08;8.10;;;7.30;;
2201;SDS011;1107;48.654;9.250;2022-11-15T16:14:35;10.77;;;6.90;;